createdAt,value
2023-02-20T00:00:16.781Z,10.31
2023-02-20T00:01:16.753Z,10.26
2023-02-20T00:02:16.794Z,10.28
2023-02-20T00:03:16.740Z,10.26
2023-02-20T00:04:16.723Z,10.25
2023-02-20T00:05:16.707Z,10.26
2023-02-20T00:06:16.688Z,10.14
2023-02-20T00:07:16.677Z,10.20
2023-02-20T00:08:16.673Z,10.17
2023-02-20T00:09:16.644Z,10.25
2023-02-20T00:10:16.640Z,10.13
2023-02-20T00:11:16.625Z,10.17
2023-02-20T00:12:16.611Z,10.18
2023-02-20T00:13:16.595Z,10.18
2023-02-20T00:14:16.587Z,10.16
2023-02-20T00:15:16.583Z,10.17
2023-02-20T00:16:16.592Z,10.16
2023-02-20T00:17:16.539Z,10.11
2023-02-20T00:18:16.527Z,10.16
2023-02-20T00:19:16.512Z,10.16
2023-02-20T00:20:16.500Z,10.20
2023-02-20T00:21:16.483Z,10.13
2023-02-20T00:22:16.470Z,10.16
2023-02-20T00:23:16.467Z,10.18
2023-02-20T00:24:16.459Z,10.16
2023-02-20T00:25:16.429Z,10.18
2023-02-20T00:26:16.429Z,10.16
2023-02-20T00:27:16.401Z,10.07
2023-02-20T00:28:16.391Z,10.01
2023-02-20T00:29:16.374Z,10.10
2023-02-20T00:30:16.408Z,10.02
2023-02-20T00:31:16.480Z,9.96
2023-02-20T00:32:16.674Z,10.01
2023-02-20T00:33:16.328Z,9.99
2023-02-20T00:34:16.312Z,9.99
2023-02-20T00:35:16.296Z,9.96
2023-02-20T00:36:16.299Z,9.95
2023-02-20T00:37:16.342Z,10.04
2023-02-20T00:38:16.261Z,9.93
2023-02-20T00:39:16.256Z,9.92
2023-02-20T00:40:16.234Z,9.93
2023-02-20T00:41:16.214Z,9.96
2023-02-20T00:42:16.204Z,9.95
2023-02-20T00:43:16.188Z,9.93
2023-02-20T00:44:16.182Z,9.91
2023-02-20T00:45:16.162Z,9.98
2023-02-20T00:46:16.483Z,9.89
2023-02-20T00:47:16.133Z,9.96
2023-02-20T00:48:16.123Z,9.89
2023-02-20T00:49:16.105Z,9.86
2023-02-20T00:50:16.099Z,9.81
2023-02-20T00:51:16.079Z,9.85
2023-02-20T00:52:16.071Z,9.81
2023-02-20T00:53:16.054Z,9.80
2023-02-20T00:54:16.040Z,9.78
2023-02-20T00:55:16.027Z,9.80
2023-02-20T00:56:16.017Z,9.81
2023-02-20T00:57:15.999Z,9.74
2023-02-20T00:58:15.987Z,9.70
2023-02-20T00:59:15.977Z,9.77
2023-02-20T01:00:15.960Z,9.78
2023-02-20T01:01:15.963Z,9.75
2023-02-20T01:02:15.932Z,9.75
2023-02-20T01:03:15.921Z,9.74
2023-02-20T01:04:15.900Z,9.73
2023-02-20T01:05:15.900Z,9.81
2023-02-20T01:06:15.871Z,9.80
2023-02-20T01:07:15.870Z,9.80
2023-02-20T01:08:15.848Z,9.74
2023-02-20T01:09:15.833Z,9.78
2023-02-20T01:10:15.823Z,9.77
2023-02-20T01:11:15.805Z,9.78
2023-02-20T01:12:15.789Z,9.80
2023-02-20T01:13:15.777Z,9.77
2023-02-20T01:14:15.772Z,9.75
2023-02-20T01:15:15.806Z,9.77
2023-02-20T01:16:15.982Z,9.78
2023-02-20T01:17:15.724Z,9.80
2023-02-20T01:18:15.706Z,9.74
2023-02-20T01:19:15.696Z,9.67
2023-02-20T01:20:15.679Z,9.60
2023-02-20T01:21:15.669Z,9.68
2023-02-20T01:22:15.651Z,9.63
2023-02-20T01:23:15.640Z,9.73
2023-02-20T01:24:15.629Z,9.71
2023-02-20T01:25:15.611Z,9.75
2023-02-20T01:26:15.620Z,9.71
2023-02-20T01:27:15.588Z,9.77
2023-02-20T01:28:15.568Z,9.75
2023-02-20T01:29:15.561Z,9.83
2023-02-20T01:30:15.615Z,9.78
2023-02-20T01:31:15.667Z,9.74
2023-02-20T01:32:15.583Z,9.81
2023-02-20T01:33:15.502Z,9.70
2023-02-20T01:34:15.484Z,9.71
2023-02-20T01:35:15.474Z,9.70
2023-02-20T01:36:15.461Z,9.60
2023-02-20T01:37:15.448Z,9.70
2023-02-20T01:38:15.431Z,9.70
2023-02-20T01:39:15.424Z,9.60
2023-02-20T01:40:15.405Z,9.74
2023-02-20T01:41:15.400Z,9.63
2023-02-20T01:42:15.377Z,9.73
2023-02-20T01:43:15.367Z,9.73
2023-02-20T01:44:15.351Z,9.67
2023-02-20T01:45:15.339Z,9.70
2023-02-20T01:46:15.367Z,9.67
2023-02-20T01:47:15.313Z,9.71
2023-02-20T01:48:15.297Z,9.73
2023-02-20T01:49:15.284Z,9.77
2023-02-20T01:50:15.267Z,9.60
2023-02-20T01:51:15.260Z,9.70
2023-02-20T01:52:15.241Z,9.63
2023-02-20T01:53:15.281Z,9.73
2023-02-20T01:54:15.213Z,9.68
2023-02-20T01:55:15.223Z,9.70
2023-02-20T01:56:15.189Z,9.74
2023-02-20T01:57:15.175Z,9.67
2023-02-20T01:58:15.162Z,9.80
2023-02-20T01:59:15.148Z,9.74
2023-02-20T02:00:15.164Z,9.70
2023-02-20T02:01:15.123Z,9.67
2023-02-20T02:02:15.188Z,9.60
2023-02-20T02:03:15.102Z,9.65
2023-02-20T02:04:15.079Z,9.65
2023-02-20T02:05:15.074Z,9.58
2023-02-20T02:06:15.070Z,9.59
2023-02-20T02:07:15.057Z,9.58
2023-02-20T02:08:15.027Z,9.68
2023-02-20T02:09:15.010Z,9.53
2023-02-20T02:10:14.992Z,9.65
2023-02-20T02:11:14.981Z,9.63
2023-02-20T02:12:14.963Z,9.59
2023-02-20T02:13:14.952Z,9.58
2023-02-20T02:14:14.933Z,9.56
2023-02-20T02:15:14.941Z,9.44
2023-02-20T02:16:15.201Z,9.44
2023-02-20T02:17:14.894Z,9.44
2023-02-20T02:18:14.877Z,9.44
2023-02-20T02:19:14.870Z,9.37
2023-02-20T02:20:14.848Z,9.44
2023-02-20T02:21:14.838Z,9.44
2023-02-20T02:22:14.820Z,9.48
2023-02-20T02:23:14.808Z,9.56
2023-02-20T02:24:14.793Z,9.49
2023-02-20T02:25:14.780Z,9.49
2023-02-20T02:26:14.999Z,9.52
2023-02-20T02:27:14.751Z,9.44
2023-02-20T02:28:14.734Z,9.49
2023-02-20T02:29:14.723Z,9.48
2023-02-20T02:30:14.823Z,9.49
2023-02-20T02:31:14.775Z,9.44
2023-02-20T02:32:14.677Z,9.41
2023-02-20T02:33:14.667Z,9.37
2023-02-20T02:34:14.654Z,9.40
2023-02-20T02:35:14.643Z,9.40
2023-02-20T02:36:14.760Z,9.34
2023-02-20T02:37:14.608Z,9.40
2023-02-20T02:38:14.610Z,9.38
2023-02-20T02:39:14.582Z,9.35
2023-02-20T02:40:14.568Z,9.40
2023-02-20T02:41:14.558Z,9.41
2023-02-20T02:42:14.539Z,9.41
2023-02-20T02:43:14.526Z,9.40
2023-02-20T02:44:14.515Z,9.40
2023-02-20T02:45:14.502Z,9.37
2023-02-20T02:46:14.761Z,9.42
2023-02-20T02:47:14.471Z,9.38
2023-02-20T02:48:14.456Z,9.26
2023-02-20T02:49:14.444Z,9.32
2023-02-20T02:50:14.429Z,9.34
2023-02-20T02:51:14.417Z,9.31
2023-02-20T02:52:14.400Z,9.31
2023-02-20T02:53:14.387Z,9.30
2023-02-20T02:54:14.396Z,9.26
2023-02-20T02:55:14.359Z,9.30
2023-02-20T02:56:14.407Z,9.26
2023-02-20T02:57:14.331Z,9.31
2023-02-20T02:58:14.315Z,9.32
2023-02-20T02:59:14.305Z,9.19
2023-02-20T03:00:14.287Z,9.15
2023-02-20T03:01:14.330Z,9.23
2023-02-20T03:02:14.335Z,9.30
2023-02-20T03:03:14.258Z,9.22
2023-02-20T03:04:14.241Z,9.10
2023-02-20T03:05:14.243Z,9.23
2023-02-20T03:06:14.566Z,9.24
2023-02-20T03:07:14.194Z,9.27
2023-02-20T03:08:14.181Z,9.30
2023-02-20T03:09:14.166Z,9.22
2023-02-20T03:10:14.178Z,9.26
2023-02-20T03:11:14.142Z,9.26
2023-02-20T03:12:14.118Z,9.22
2023-02-20T03:13:14.108Z,9.23
2023-02-20T03:14:14.091Z,9.17
2023-02-20T03:15:14.078Z,9.24
2023-02-20T03:16:14.486Z,9.35
2023-02-20T03:17:14.053Z,9.31
2023-02-20T03:18:14.033Z,9.22
2023-02-20T03:19:14.019Z,9.23
2023-02-20T03:20:14.017Z,9.35
2023-02-20T03:21:13.995Z,9.15
2023-02-20T03:22:13.983Z,9.20
2023-02-20T03:23:13.968Z,9.20
2023-02-20T03:24:13.953Z,9.17
2023-02-20T03:25:13.940Z,9.16
2023-02-20T03:26:14.292Z,9.24
2023-02-20T03:27:13.913Z,9.30
2023-02-20T03:28:13.898Z,9.27
2023-02-20T03:29:13.893Z,9.32
2023-02-20T03:30:13.931Z,9.22
2023-02-20T03:31:14.085Z,9.26
2023-02-20T03:32:13.918Z,9.27
2023-02-20T03:33:13.839Z,9.27
2023-02-20T03:34:13.811Z,9.22
2023-02-20T03:35:13.800Z,9.40
2023-02-20T03:36:14.169Z,9.38
2023-02-20T03:37:13.772Z,9.41
2023-02-20T03:38:13.760Z,9.37
2023-02-20T03:39:13.745Z,9.30
2023-02-20T03:40:13.732Z,9.26
2023-02-20T03:41:13.717Z,9.31
2023-02-20T03:42:13.753Z,9.31
2023-02-20T03:43:13.695Z,9.30
2023-02-20T03:44:13.672Z,9.27
2023-02-20T03:45:13.660Z,9.30
2023-02-20T03:46:14.100Z,9.26
2023-02-20T03:47:13.633Z,9.30
2023-02-20T03:48:13.615Z,9.23
2023-02-20T03:49:13.604Z,9.32
2023-02-20T03:50:13.594Z,9.37
2023-02-20T03:51:13.577Z,9.27
2023-02-20T03:52:13.559Z,9.31
2023-02-20T03:53:13.546Z,9.37
2023-02-20T03:54:13.529Z,9.30
2023-02-20T03:55:13.518Z,9.31
2023-02-20T03:56:13.766Z,9.27
2023-02-20T03:57:13.493Z,9.30
2023-02-20T03:58:13.494Z,9.27
2023-02-20T03:59:13.462Z,9.30
2023-02-20T04:00:13.449Z,9.30
2023-02-20T04:01:13.440Z,9.34
2023-02-20T04:02:13.467Z,9.30
2023-02-20T04:03:13.410Z,9.27
2023-02-20T04:04:13.388Z,9.26
2023-02-20T04:05:13.375Z,9.27
2023-02-20T04:06:13.629Z,9.26
2023-02-20T04:07:13.351Z,9.20
2023-02-20T04:08:13.331Z,9.13
2023-02-20T04:09:13.318Z,9.08
2023-02-20T04:10:13.304Z,9.17
2023-02-20T04:11:13.340Z,9.17
2023-02-20T04:12:13.274Z,9.01
2023-02-20T04:13:13.262Z,9.13
2023-02-20T04:14:13.266Z,9.01
2023-02-20T04:15:13.231Z,8.98
2023-02-20T04:16:13.595Z,8.94
2023-02-20T04:17:13.205Z,8.89
2023-02-20T04:18:13.188Z,8.89
2023-02-20T04:19:13.175Z,8.86
2023-02-20T04:20:13.158Z,8.89
2023-02-20T04:21:13.146Z,8.80
2023-02-20T04:22:13.156Z,8.73
2023-02-20T04:23:13.119Z,8.70
2023-02-20T04:24:13.109Z,8.68
2023-02-20T04:25:13.090Z,8.75
2023-02-20T04:26:13.462Z,8.60
2023-02-20T04:27:13.062Z,8.58
2023-02-20T04:28:13.043Z,8.54
2023-02-20T04:29:13.030Z,8.50
2023-02-20T04:30:13.078Z,8.49
2023-02-20T04:31:13.029Z,8.22
2023-02-20T04:32:12.991Z,8.36
2023-02-20T04:33:12.969Z,8.32
2023-02-20T04:34:12.953Z,8.36
2023-02-20T04:35:12.939Z,8.29
2023-02-20T04:36:13.299Z,8.24
2023-02-20T04:37:12.919Z,8.14
2023-02-20T04:38:12.969Z,8.21
2023-02-20T04:39:12.940Z,8.13
2023-02-20T04:40:12.892Z,8.14
2023-02-20T04:41:12.850Z,8.07
2023-02-20T04:42:12.832Z,8.04
2023-02-20T04:43:12.821Z,8.10
2023-02-20T04:44:12.808Z,7.95
2023-02-20T04:45:12.792Z,7.86
2023-02-20T04:46:13.118Z,7.96
2023-02-20T04:47:12.761Z,8.09
2023-02-20T04:48:12.748Z,8.14
2023-02-20T04:49:12.783Z,7.99
2023-02-20T04:50:12.714Z,8.09
2023-02-20T04:51:12.708Z,8.03
2023-02-20T04:52:12.701Z,7.95
2023-02-20T04:53:12.672Z,8.14
2023-02-20T04:54:12.655Z,8.10
2023-02-20T04:55:12.644Z,7.89
2023-02-20T04:56:12.892Z,7.94
2023-02-20T04:57:12.619Z,7.77
2023-02-20T04:58:12.594Z,7.79
2023-02-20T04:59:12.583Z,7.71
2023-02-20T05:00:12.568Z,7.76
2023-02-20T05:01:12.641Z,7.71
2023-02-20T05:02:12.566Z,7.82
2023-02-20T05:03:12.524Z,7.95
2023-02-20T05:04:12.523Z,7.95
2023-02-20T05:05:12.495Z,7.89
2023-02-20T05:06:12.832Z,8.03
2023-02-20T05:07:12.514Z,7.95
2023-02-20T05:08:12.467Z,7.79
2023-02-20T05:09:12.437Z,7.70
2023-02-20T05:10:12.418Z,7.66
2023-02-20T05:11:12.406Z,7.70
2023-02-20T05:12:12.389Z,7.62
2023-02-20T05:13:12.383Z,7.62
2023-02-20T05:14:12.358Z,7.67
2023-02-20T05:15:12.351Z,7.58
2023-02-20T05:16:12.729Z,7.63
2023-02-20T05:17:12.322Z,7.42
2023-02-20T05:18:12.317Z,7.37
2023-02-20T05:19:12.289Z,7.45
2023-02-20T05:20:12.272Z,7.51
2023-02-20T05:21:12.252Z,7.50
2023-02-20T05:22:12.242Z,7.41
2023-02-20T05:23:12.224Z,7.45
2023-02-20T05:24:12.212Z,7.45
2023-02-20T05:25:12.193Z,7.37
2023-02-20T05:26:12.524Z,7.32
2023-02-20T05:27:12.161Z,7.16
2023-02-20T05:28:12.158Z,7.16
2023-02-20T05:29:12.147Z,7.12
2023-02-20T05:30:12.178Z,7.14
2023-02-20T05:31:12.195Z,7.24
2023-02-20T05:32:12.111Z,7.34
2023-02-20T05:33:12.071Z,7.41
2023-02-20T05:34:12.077Z,7.16
2023-02-20T05:35:12.042Z,7.21
2023-02-20T05:36:12.373Z,7.16
2023-02-20T05:37:12.008Z,7.05
2023-02-20T05:38:11.998Z,6.93
2023-02-20T05:39:11.980Z,6.96
2023-02-20T05:40:11.976Z,7.00
2023-02-20T05:41:11.947Z,7.11
2023-02-20T05:42:11.937Z,7.01
2023-02-20T05:43:11.918Z,7.11
2023-02-20T05:44:11.909Z,7.12
2023-02-20T05:45:11.887Z,7.04
2023-02-20T05:46:12.196Z,7.05
2023-02-20T05:47:11.863Z,7.09
2023-02-20T05:48:11.844Z,6.96
2023-02-20T05:49:11.829Z,7.00
2023-02-20T05:50:11.831Z,6.82
2023-02-20T05:51:11.795Z,6.69
2023-02-20T05:52:11.989Z,6.72
2023-02-20T05:53:11.964Z,6.79
2023-02-20T05:54:11.754Z,6.72
2023-02-20T05:55:11.734Z,6.82
2023-02-20T05:56:11.935Z,6.72
2023-02-20T05:57:11.702Z,6.64
2023-02-20T05:58:11.691Z,6.64
2023-02-20T05:59:11.671Z,6.68
2023-02-20T06:00:11.662Z,6.60
2023-02-20T06:01:11.639Z,6.54
2023-02-20T06:02:11.627Z,6.51
2023-02-20T06:03:11.608Z,6.55
2023-02-20T06:04:11.682Z,6.57
2023-02-20T06:05:11.578Z,6.55
2023-02-20T06:06:11.855Z,6.61
2023-02-20T06:07:11.546Z,6.64
2023-02-20T06:08:11.536Z,6.72
2023-02-20T06:09:11.520Z,6.79
2023-02-20T06:10:11.709Z,6.86
2023-02-20T06:11:11.486Z,6.78
2023-02-20T06:12:11.480Z,6.69
2023-02-20T06:13:11.455Z,6.69
2023-02-20T06:14:11.439Z,6.76
2023-02-20T06:15:11.424Z,6.65
2023-02-20T06:16:11.770Z,6.68
2023-02-20T06:17:11.389Z,6.68
2023-02-20T06:18:11.380Z,6.58
2023-02-20T06:19:11.560Z,6.43
2023-02-20T06:20:11.346Z,6.57
2023-02-20T06:21:11.327Z,6.43
2023-02-20T06:22:11.334Z,6.40
2023-02-20T06:23:11.297Z,6.35
2023-02-20T06:25:11.949Z,6.24
2023-02-20T06:26:11.623Z,6.36
2023-02-20T06:28:11.222Z,6.33
2023-02-20T06:29:11.203Z,6.28
2023-02-20T06:30:11.248Z,6.27
2023-02-20T06:31:11.225Z,6.27
2023-02-20T06:32:11.207Z,6.32
2023-02-20T06:33:11.145Z,6.38
2023-02-20T06:34:11.131Z,6.33
2023-02-20T06:35:11.123Z,6.42
2023-02-20T06:36:11.430Z,6.35
2023-02-20T06:38:11.090Z,6.27
2023-02-20T06:39:11.053Z,6.35
2023-02-20T06:40:11.037Z,6.28
2023-02-20T06:41:11.023Z,6.27
2023-02-20T06:42:11.006Z,6.28
2023-02-20T06:43:10.992Z,6.28
2023-02-20T06:44:10.983Z,6.25
2023-02-20T06:45:11.998Z,6.30
2023-02-20T06:46:11.321Z,6.46
2023-02-20T06:47:10.944Z,6.48
2023-02-20T06:48:11.119Z,6.55
2023-02-20T06:49:10.898Z,6.50
2023-02-20T06:50:10.885Z,6.55
2023-02-20T06:51:11.069Z,6.40
2023-02-20T06:53:10.837Z,6.58
2023-02-20T06:54:10.837Z,6.57
2023-02-20T06:55:10.806Z,6.64
2023-02-20T06:56:11.236Z,6.73
2023-02-20T06:57:10.770Z,6.75
2023-02-20T06:58:11.426Z,6.65
2023-02-20T06:59:10.744Z,6.69
2023-02-20T07:00:10.727Z,6.76
2023-02-20T07:01:10.743Z,6.90
2023-02-20T07:02:10.741Z,6.82
2023-02-20T07:03:10.676Z,6.81
2023-02-20T07:04:10.665Z,6.83
2023-02-20T07:05:10.694Z,6.72
2023-02-20T07:06:10.856Z,6.69
2023-02-20T07:07:10.616Z,6.63
2023-02-20T07:08:10.606Z,6.55
2023-02-20T07:09:10.582Z,6.45
2023-02-20T07:10:10.590Z,6.46
2023-02-20T07:11:10.570Z,6.46
2023-02-20T07:12:10.554Z,6.45
2023-02-20T07:13:10.518Z,6.48
2023-02-20T07:14:10.504Z,6.48
2023-02-20T07:15:10.488Z,6.71
2023-02-20T07:16:10.555Z,6.68
2023-02-20T07:17:10.454Z,6.76
2023-02-20T07:18:10.442Z,6.69
2023-02-20T07:19:10.424Z,6.60
2023-02-20T07:20:10.420Z,6.45
2023-02-20T07:21:10.393Z,6.46
2023-02-20T07:22:10.379Z,6.43
2023-02-20T07:23:10.362Z,6.45
2023-02-20T07:24:10.358Z,6.40
2023-02-20T07:25:10.330Z,6.35
2023-02-20T07:26:10.645Z,6.32
2023-02-20T07:27:10.305Z,6.39
2023-02-20T07:28:10.292Z,6.32
2023-02-20T07:29:10.271Z,6.40
2023-02-20T07:30:10.309Z,6.30
2023-02-20T07:31:10.250Z,6.32
2023-02-20T07:32:10.265Z,6.40
2023-02-20T07:33:10.212Z,6.45
2023-02-20T07:34:10.190Z,6.51
2023-02-20T07:35:10.184Z,6.55
2023-02-20T07:36:10.458Z,6.53
2023-02-20T07:37:10.136Z,6.54
2023-02-20T07:38:10.130Z,6.65
2023-02-20T07:39:10.107Z,6.69
2023-02-20T07:40:10.098Z,6.63
2023-02-20T07:41:10.077Z,6.73
2023-02-20T07:42:10.080Z,6.76
2023-02-20T07:43:10.043Z,6.75
2023-02-20T07:44:10.040Z,6.73
2023-02-20T07:45:10.014Z,6.75
2023-02-20T07:46:10.074Z,6.76
2023-02-20T07:47:09.981Z,6.86
2023-02-20T07:48:09.969Z,6.93
2023-02-20T07:49:09.949Z,6.83
2023-02-20T07:50:09.937Z,6.86
2023-02-20T07:51:09.918Z,6.91
2023-02-20T07:52:09.908Z,6.94
2023-02-20T07:53:09.889Z,7.05
2023-02-20T07:54:09.874Z,7.23
2023-02-20T07:55:09.906Z,7.39
2023-02-20T07:56:09.959Z,7.63
2023-02-20T07:57:09.826Z,7.77
2023-02-20T07:58:09.835Z,7.84
2023-02-20T07:59:09.794Z,7.99
2023-02-20T08:00:09.832Z,8.02
2023-02-20T08:01:09.765Z,8.28
2023-02-20T08:02:09.753Z,8.42
2023-02-20T08:03:09.732Z,8.47
2023-02-20T08:04:09.721Z,8.43
2023-02-20T08:05:09.721Z,8.58
2023-02-20T08:06:09.688Z,8.50
2023-02-20T08:07:09.670Z,8.50
2023-02-20T08:08:09.661Z,8.52
2023-02-20T08:09:09.640Z,8.67
2023-02-20T08:10:09.627Z,8.61
2023-02-20T08:11:10.422Z,8.60
2023-02-20T08:12:09.599Z,8.63
2023-02-20T08:13:09.581Z,8.67
2023-02-20T08:14:09.605Z,8.61
2023-02-20T08:15:09.549Z,8.55
2023-02-20T08:16:09.562Z,8.75
2023-02-20T08:17:09.519Z,8.78
2023-02-20T08:18:18.715Z,8.85
2023-02-20T08:19:09.500Z,8.86
2023-02-20T08:20:09.487Z,8.88
2023-02-20T08:21:09.459Z,9.01
2023-02-20T08:22:09.448Z,8.98
2023-02-20T08:23:09.430Z,9.08
2023-02-20T08:24:09.422Z,9.17
2023-02-20T08:25:09.398Z,9.17
2023-02-20T08:26:09.397Z,9.23
2023-02-20T08:27:09.375Z,9.35
2023-02-20T08:28:09.359Z,9.40
2023-02-20T08:29:09.343Z,9.48
2023-02-20T08:30:09.364Z,9.50
2023-02-20T08:31:11.944Z,9.58
2023-02-20T08:32:09.414Z,9.73
2023-02-20T08:33:09.313Z,9.71
2023-02-20T08:34:09.284Z,9.73
2023-02-20T08:35:09.258Z,9.80
2023-02-20T08:36:09.255Z,9.77
2023-02-20T08:37:09.230Z,9.73
2023-02-20T08:38:09.214Z,9.77
2023-02-20T08:39:09.204Z,9.85
2023-02-20T08:40:09.194Z,9.88
2023-02-20T08:41:09.175Z,9.95
2023-02-20T08:42:09.162Z,9.99
2023-02-20T08:43:09.140Z,10.01
2023-02-20T08:44:09.131Z,10.02
2023-02-20T08:45:09.139Z,10.01
2023-02-20T08:46:09.218Z,10.11
2023-02-20T08:47:09.082Z,10.24
2023-02-20T08:48:09.087Z,10.26
2023-02-20T08:49:09.059Z,10.28
2023-02-20T08:50:09.061Z,10.28
2023-02-20T08:51:09.032Z,10.44
2023-02-20T08:52:09.018Z,10.43
2023-02-20T08:53:08.999Z,10.52
2023-02-20T08:54:08.990Z,10.60
2023-02-20T08:55:08.974Z,10.66
2023-02-20T08:56:08.971Z,10.76
2023-02-20T08:57:08.946Z,10.86
2023-02-20T08:58:08.973Z,10.84
2023-02-20T08:59:08.920Z,10.90
2023-02-20T09:00:08.906Z,11.01
2023-02-20T09:01:08.934Z,11.05
2023-02-20T09:02:08.901Z,11.09
2023-02-20T09:03:08.899Z,11.26
2023-02-20T09:04:08.852Z,11.27
2023-02-20T09:05:08.835Z,11.23
2023-02-20T09:06:08.828Z,11.17
2023-02-20T09:07:08.807Z,11.05
2023-02-20T09:08:08.796Z,11.03
2023-02-20T09:09:08.780Z,11.05
2023-02-20T09:10:08.771Z,11.09
2023-02-20T09:11:10.171Z,11.11
2023-02-20T09:12:08.745Z,11.21
2023-02-20T09:13:08.729Z,11.16
2023-02-20T09:14:08.718Z,11.21
2023-02-20T09:15:08.701Z,11.33
2023-02-20T09:16:08.744Z,11.38
2023-02-20T09:17:08.680Z,11.44
2023-02-20T09:18:08.740Z,11.46
2023-02-20T09:19:08.650Z,11.42
2023-02-20T09:20:08.639Z,11.51
2023-02-20T09:21:08.633Z,11.67
2023-02-20T09:22:08.613Z,11.63
2023-02-20T09:23:08.599Z,11.77
2023-02-20T09:24:08.590Z,11.79
2023-02-20T09:25:08.573Z,11.79
2023-02-20T09:26:08.612Z,11.84
2023-02-20T09:27:08.548Z,11.97
2023-02-20T09:28:08.536Z,12.04
2023-02-20T09:29:08.519Z,12.08
2023-02-20T09:30:08.548Z,12.21
2023-02-20T09:31:08.495Z,12.23
2023-02-20T09:32:08.600Z,12.21
2023-02-20T09:33:08.476Z,12.37
2023-02-20T09:34:08.485Z,12.30
2023-02-20T09:35:08.445Z,12.30
2023-02-20T09:36:08.435Z,12.33
2023-02-20T09:37:08.418Z,12.19
2023-02-20T09:38:08.413Z,12.25
2023-02-20T09:39:08.394Z,12.30
2023-02-20T09:40:08.381Z,12.31
2023-02-20T09:41:08.376Z,12.36
2023-02-20T09:42:08.357Z,12.40
2023-02-20T09:43:08.344Z,12.56
2023-02-20T09:44:08.343Z,12.67
2023-02-20T09:45:08.323Z,12.73
2023-02-20T09:46:08.334Z,12.74
2023-02-20T09:47:08.295Z,12.74
2023-02-20T09:48:08.280Z,12.91
2023-02-20T09:49:08.271Z,12.88
2023-02-20T09:50:08.281Z,12.99
2023-02-20T09:51:08.246Z,13.06
2023-02-20T09:52:08.432Z,13.06
2023-02-20T09:53:08.220Z,13.10
2023-02-20T09:54:08.208Z,13.21
2023-02-20T09:55:08.196Z,13.28
2023-02-20T09:56:08.179Z,13.28
2023-02-20T09:57:08.171Z,13.28
2023-02-20T09:58:08.174Z,13.41
2023-02-20T09:59:08.148Z,13.36
2023-02-20T10:00:08.136Z,13.44
2023-02-20T10:01:08.121Z,13.51
2023-02-20T10:02:08.196Z,13.54
2023-02-20T10:03:08.251Z,13.57
2023-02-20T10:04:08.087Z,13.62
2023-02-20T10:05:08.077Z,13.66
2023-02-20T10:06:08.084Z,13.62
2023-02-20T10:07:08.062Z,13.63
2023-02-20T10:08:08.038Z,13.55
2023-02-20T10:09:08.032Z,13.59
2023-02-20T10:10:08.013Z,13.66
2023-02-20T10:11:09.443Z,13.68
2023-02-20T10:12:07.997Z,13.65
2023-02-20T10:13:07.985Z,13.73
2023-02-20T10:14:07.967Z,13.80
2023-02-20T10:15:07.967Z,13.80
2023-02-20T10:16:07.977Z,13.81
2023-02-20T10:17:10.088Z,13.94
2023-02-20T10:18:07.921Z,14.02
2023-02-20T10:19:07.913Z,14.01
2023-02-20T10:20:07.900Z,14.11
2023-02-20T10:21:07.897Z,14.13
2023-02-20T10:22:07.900Z,14.19
2023-02-20T10:23:07.870Z,14.11
2023-02-20T10:24:07.859Z,14.09
2023-02-20T10:25:07.857Z,14.20
2023-02-20T10:26:07.832Z,14.20
2023-02-20T10:27:07.824Z,14.36
2023-02-20T10:28:07.811Z,14.44
2023-02-20T10:29:07.855Z,14.46
2023-02-20T10:30:07.892Z,14.57
2023-02-20T10:31:07.853Z,14.57
2023-02-20T10:32:07.880Z,14.67
2023-02-20T10:33:07.773Z,14.74
2023-02-20T10:34:07.744Z,14.85
2023-02-20T10:35:07.751Z,14.82
2023-02-20T10:36:07.727Z,14.86
2023-02-20T10:37:07.715Z,14.97
2023-02-20T10:38:07.724Z,15.01
2023-02-20T10:39:07.716Z,14.98
2023-02-20T10:40:07.884Z,15.13
2023-02-20T10:41:07.673Z,15.11
2023-02-20T10:42:07.660Z,15.23
2023-02-20T10:43:07.668Z,15.19
2023-02-20T10:44:07.641Z,15.23
2023-02-20T10:45:07.634Z,15.23
2023-02-20T10:46:07.702Z,15.33
2023-02-20T10:47:07.610Z,15.37
2023-02-20T10:48:07.603Z,15.31
2023-02-20T10:49:07.588Z,15.38
2023-02-20T10:50:07.577Z,15.52
2023-02-20T10:51:07.575Z,15.53
2023-02-20T10:52:07.554Z,15.48
2023-02-20T10:53:07.546Z,15.44
2023-02-20T10:54:07.561Z,15.56
2023-02-20T10:55:07.525Z,15.52
2023-02-20T10:56:07.510Z,15.44
2023-02-20T10:57:07.503Z,15.51
2023-02-20T10:58:07.488Z,15.44
2023-02-20T10:59:07.481Z,15.43
2023-02-20T11:00:07.466Z,15.52
2023-02-20T11:01:07.549Z,15.53
2023-02-20T11:02:07.556Z,15.51
2023-02-20T11:03:07.444Z,15.52
2023-02-20T11:04:07.567Z,15.41
2023-02-20T11:05:07.420Z,15.48
2023-02-20T11:06:07.407Z,15.49
2023-02-20T11:07:07.398Z,15.46
2023-02-20T11:08:07.384Z,15.58
2023-02-20T11:09:07.376Z,15.46
2023-02-20T11:10:07.382Z,15.52
2023-02-20T11:11:07.355Z,15.60
2023-02-20T11:12:07.342Z,15.62
2023-02-20T11:13:07.340Z,15.53
2023-02-20T11:14:07.323Z,15.59
2023-02-20T11:15:07.322Z,15.64
2023-02-20T11:16:07.314Z,15.71
2023-02-20T11:17:07.295Z,15.68
2023-02-20T11:18:07.291Z,15.73
2023-02-20T11:19:07.271Z,15.73
2023-02-20T11:20:07.275Z,15.70
2023-02-20T11:21:07.255Z,15.76
2023-02-20T11:22:07.245Z,15.78
2023-02-20T11:23:07.236Z,15.85
2023-02-20T11:24:07.219Z,15.86
2023-02-20T11:25:07.235Z,15.92
2023-02-20T11:26:07.246Z,16.08
2023-02-20T11:27:07.224Z,16.01
2023-02-20T11:28:07.204Z,16.03
2023-02-20T11:29:07.178Z,15.96
2023-02-20T11:30:07.193Z,15.93
2023-02-20T11:31:07.330Z,15.95
2023-02-20T11:32:07.177Z,15.92
2023-02-20T11:33:07.148Z,15.93
2023-02-20T11:34:07.126Z,15.99
2023-02-20T11:35:07.119Z,16.13
2023-02-20T11:36:07.110Z,16.14
2023-02-20T11:37:07.099Z,16.10
2023-02-20T11:38:07.089Z,16.08
2023-02-20T11:39:07.080Z,16.16
2023-02-20T11:40:07.069Z,16.11
2023-02-20T11:41:07.061Z,16.18
2023-02-20T11:42:07.068Z,16.26
2023-02-20T11:43:07.046Z,16.27
2023-02-20T11:44:07.034Z,16.30
2023-02-20T11:45:07.025Z,16.25
2023-02-20T11:46:07.042Z,16.18
2023-02-20T11:47:07.004Z,16.30
2023-02-20T11:48:06.996Z,16.16
2023-02-20T11:49:06.997Z,16.18
2023-02-20T11:50:18.394Z,16.26
2023-02-20T11:51:06.976Z,16.37
2023-02-20T11:52:06.954Z,16.40
2023-02-20T11:53:06.950Z,16.50
2023-02-20T11:54:06.937Z,16.51
2023-02-20T11:55:06.927Z,16.52
2023-02-20T11:56:06.919Z,16.57
2023-02-20T11:57:06.922Z,16.57
2023-02-20T11:58:06.946Z,16.55
2023-02-20T11:59:06.887Z,16.62
2023-02-20T12:00:06.875Z,16.62
2023-02-20T12:01:06.869Z,16.59
2023-02-20T12:02:06.856Z,16.50
2023-02-20T12:03:06.856Z,16.52
2023-02-20T12:04:06.869Z,16.52
2023-02-20T12:05:06.888Z,16.48
2023-02-20T12:06:06.864Z,16.47
2023-02-20T12:07:06.810Z,16.62
2023-02-20T12:08:06.797Z,16.65
2023-02-20T12:09:06.790Z,16.54
2023-02-20T12:10:06.778Z,16.62
2023-02-20T12:11:06.771Z,16.66
2023-02-20T12:12:06.759Z,16.70
2023-02-20T12:13:06.754Z,16.78
2023-02-20T12:14:06.764Z,16.63
2023-02-20T12:15:06.733Z,16.69
2023-02-20T12:16:06.753Z,16.59
2023-02-20T12:17:06.715Z,16.82
2023-02-20T12:18:06.705Z,16.60
2023-02-20T12:19:06.751Z,16.66
2023-02-20T12:20:06.687Z,16.72
2023-02-20T12:21:06.680Z,16.73
2023-02-20T12:22:06.673Z,16.87
2023-02-20T12:23:06.659Z,16.82
2023-02-20T12:24:06.648Z,16.91
2023-02-20T12:25:06.641Z,16.80
2023-02-20T12:26:06.628Z,16.78
2023-02-20T12:27:06.626Z,16.75
2023-02-20T12:28:06.611Z,16.85
2023-02-20T12:29:06.614Z,16.95
2023-02-20T12:30:06.671Z,16.80
2023-02-20T12:31:06.752Z,16.78
2023-02-20T12:32:06.687Z,16.91
2023-02-20T12:33:06.570Z,16.90
2023-02-20T12:34:06.558Z,16.98
2023-02-20T12:35:06.554Z,16.99
2023-02-20T12:36:06.541Z,16.95
2023-02-20T12:37:06.535Z,17.09
2023-02-20T12:38:06.523Z,17.03
2023-02-20T12:39:06.520Z,17.02
2023-02-20T12:40:06.506Z,17.05
2023-02-20T12:41:06.504Z,17.05
2023-02-20T12:42:06.488Z,17.00
2023-02-20T12:43:06.486Z,17.00
2023-02-20T12:44:13.270Z,16.91
2023-02-20T12:45:06.466Z,16.87
2023-02-20T12:46:06.708Z,16.99
2023-02-20T12:47:06.448Z,16.99
2023-02-20T12:48:06.435Z,17.06
2023-02-20T12:49:06.428Z,17.09
2023-02-20T12:50:06.420Z,17.15
2023-02-20T12:51:06.418Z,17.09
2023-02-20T12:52:06.400Z,17.28
2023-02-20T12:53:06.410Z,17.21
2023-02-20T12:54:06.381Z,17.27
2023-02-20T12:55:06.377Z,17.28
2023-02-20T12:56:06.365Z,17.25
2023-02-20T12:57:06.361Z,17.24
2023-02-20T12:58:06.364Z,17.20
2023-02-20T12:59:06.366Z,17.33
2023-02-20T13:00:06.336Z,17.28
2023-02-20T13:01:06.425Z,17.25
2023-02-20T13:02:06.331Z,17.25
2023-02-20T13:03:06.308Z,17.30
2023-02-20T13:04:06.303Z,17.32
2023-02-20T13:05:06.290Z,17.35
2023-02-20T13:06:06.281Z,17.35
2023-02-20T13:07:06.272Z,17.33
2023-02-20T13:08:06.262Z,17.49
2023-02-20T13:09:06.257Z,17.51
2023-02-20T13:10:06.245Z,17.39
2023-02-20T13:11:06.238Z,17.43
2023-02-20T13:13:06.218Z,17.43